Weather at Campo di Volo Valsusa

Public forecast

Using degrees Celsius for public forecast. Weather courtesy of forecast.io.

Closest aviation weather report (METAR) to Campo di Volo Valsusa

Closest report is Torino-Aeritalia Airport, 13.5 nm (25.0 km) E. Retrieved 2020/09/26 07:50 UTC (42 minutes ago):

LIMA 260750Z 27021KT CAVOK 16/M04 Q0999

Closest aviation forecast (TAF) to Campo di Volo Valsusa

Closest forecast is Turin Airport, 16.2 nm (30.1 km) ENE. Retrieved 2020/09/26 06:00 UTC (3 hours ago):

TAF LIMF 260500Z 2606/2706 32008KT 9999 SCT070